createdAt,value
2018-11-22T00:01:01.520Z,61.79
2018-11-22T00:03:29.965Z,61.35
2018-11-22T00:05:58.452Z,61.07
2018-11-22T00:08:27.287Z,61.29
2018-11-22T00:10:56.061Z,60.73
2018-11-22T00:13:24.226Z,60.63
2018-11-22T00:15:52.993Z,60.90
2018-11-22T00:18:21.164Z,61.02
2018-11-22T00:20:49.351Z,61.28
2018-11-22T00:23:17.577Z,61.63
2018-11-22T00:25:46.019Z,61.31
2018-11-22T00:28:14.907Z,61.24
2018-11-22T00:30:43.085Z,61.32
2018-11-22T00:33:11.547Z,61.52
2018-11-22T00:35:40.044Z,61.58
2018-11-22T00:38:08.819Z,61.22
2018-11-22T00:40:37.329Z,61.56
2018-11-22T00:43:05.989Z,61.88
2018-11-22T00:45:53.567Z,61.45
2018-11-22T00:48:22.092Z,61.49
2018-11-22T00:50:50.592Z,61.23
2018-11-22T00:53:18.767Z,61.38
2018-11-22T00:55:46.923Z,61.53
2018-11-22T00:58:15.097Z,61.33
2018-11-22T01:00:44.076Z,61.59
2018-11-22T01:03:12.596Z,61.33
2018-11-22T01:05:59.837Z,61.17
2018-11-22T01:08:28.027Z,61.19
2018-11-22T01:10:56.541Z,61.31
2018-11-22T01:13:25.097Z,61.38
2018-11-22T01:15:53.714Z,61.17
2018-11-22T01:18:29.880Z,60.99
2018-11-22T01:20:58.897Z,61.36
2018-11-22T01:23:28.445Z,61.42
2018-11-22T01:25:57.818Z,61.37
2018-11-22T01:28:26.662Z,61.41
2018-11-22T01:30:55.181Z,61.49
2018-11-22T01:33:23.684Z,61.70
2018-11-22T01:35:52.448Z,61.77
2018-11-22T01:38:20.922Z,61.77
2018-11-22T01:40:49.441Z,61.65
2018-11-22T01:43:18.199Z,61.68
2018-11-22T01:45:47.268Z,61.86
2018-11-22T01:48:16.121Z,61.96
2018-11-22T01:50:44.283Z,61.73
2018-11-22T01:53:13.130Z,61.53
2018-11-22T01:55:41.604Z,61.59
2018-11-22T01:58:10.382Z,61.60
2018-11-22T02:00:38.868Z,61.84
2018-11-22T02:03:07.035Z,61.74
2018-11-22T02:05:35.550Z,61.87
2018-11-22T02:08:04.087Z,61.98
2018-11-22T02:10:33.024Z,62.23
2018-11-22T02:13:01.526Z,62.56
2018-11-22T02:15:29.958Z,62.75
2018-11-22T02:17:58.477Z,62.68
2018-11-22T02:20:26.890Z,62.84
2018-11-22T02:22:56.432Z,62.73
2018-11-22T02:25:26.233Z,62.63
2018-11-22T02:27:54.741Z,62.63
2018-11-22T02:30:24.491Z,62.92
2018-11-22T02:32:55.341Z,63.13
2018-11-22T02:35:24.036Z,63.08
2018-11-22T02:37:53.374Z,63.25
2018-11-22T02:40:22.635Z,63.35
2018-11-22T02:42:52.366Z,63.28
2018-11-22T02:45:22.854Z,63.58
2018-11-22T02:47:51.697Z,63.80
2018-11-22T02:50:21.271Z,63.64
2018-11-22T02:52:50.651Z,63.56
2018-11-22T02:55:19.423Z,63.44
2018-11-22T02:57:47.888Z,63.25
2018-11-22T03:00:37.306Z,63.07
2018-11-22T03:03:06.755Z,62.94
2018-11-22T03:05:35.626Z,63.15
2018-11-22T03:08:04.026Z,63.24
2018-11-22T03:10:32.190Z,63.24
2018-11-22T03:13:00.665Z,63.27
2018-11-22T03:15:29.216Z,63.40
2018-11-22T03:17:57.733Z,63.50
2018-11-22T03:20:27.230Z,63.57
2018-11-22T03:22:56.418Z,63.32
2018-11-22T03:25:24.912Z,63.61
2018-11-22T03:27:54.019Z,63.78
2018-11-22T03:30:24.293Z,63.74
2018-11-22T03:32:53.647Z,63.73
2018-11-22T03:35:24.025Z,63.79
2018-11-22T03:37:52.775Z,63.78
2018-11-22T03:40:22.547Z,63.93
2018-11-22T03:42:50.744Z,63.97
2018-11-22T03:45:19.612Z,63.88
2018-11-22T03:47:48.138Z,64.14
2018-11-22T03:50:18.494Z,64.01
2018-11-22T03:52:47.928Z,63.99
2018-11-22T03:55:35.523Z,63.93
2018-11-22T03:58:03.952Z,63.92
2018-11-22T04:00:32.152Z,63.62
2018-11-22T04:03:00.641Z,63.80
2018-11-22T04:05:29.954Z,63.83
2018-11-22T04:07:58.128Z,63.90
2018-11-22T04:10:28.190Z,64.07
2018-11-22T04:12:57.097Z,64.12
2018-11-22T04:15:25.766Z,64.24
2018-11-22T04:17:54.958Z,64.14
2018-11-22T04:20:24.574Z,64.31
2018-11-22T04:22:53.370Z,64.84
2018-11-22T04:25:22.358Z,64.73
2018-11-22T04:27:51.188Z,64.38
2018-11-22T04:30:21.979Z,64.38
2018-11-22T04:32:50.558Z,64.21
2018-11-22T04:35:20.355Z,64.61
2018-11-22T04:37:49.127Z,64.74
2018-11-22T04:40:19.436Z,64.67
2018-11-22T04:42:48.705Z,64.29
2018-11-22T04:45:17.980Z,64.57
2018-11-22T04:47:47.284Z,64.52
2018-11-22T04:50:17.217Z,64.51
2018-11-22T04:52:46.283Z,64.57
2018-11-22T04:55:15.095Z,64.73
2018-11-22T04:57:43.926Z,65.01
2018-11-22T05:00:15.325Z,64.72
2018-11-22T05:02:43.807Z,64.57
2018-11-22T05:05:13.981Z,64.55
2018-11-22T05:07:42.210Z,65.10
2018-11-22T05:10:13.403Z,65.13
2018-11-22T05:12:41.838Z,64.64
2018-11-22T05:15:11.976Z,64.93
2018-11-22T05:17:59.804Z,65.00
2018-11-22T05:20:28.293Z,65.30
2018-11-22T05:22:56.801Z,65.01
2018-11-22T05:25:24.962Z,65.00
2018-11-22T05:27:54.022Z,65.10
2018-11-22T05:30:41.624Z,65.22
2018-11-22T05:33:29.158Z,65.31
2018-11-22T05:36:16.699Z,65.42
2018-11-22T05:38:45.236Z,65.41
2018-11-22T05:41:13.722Z,65.58
2018-11-22T05:43:42.503Z,65.84
2018-11-22T05:46:10.949Z,65.89
2018-11-22T05:48:39.466Z,65.81
2018-11-22T05:51:08.248Z,65.60
2018-11-22T05:53:36.702Z,65.81
2018-11-22T05:56:05.461Z,66.03
2018-11-22T05:58:53.015Z,66.03
2018-11-22T06:01:21.545Z,65.97
2018-11-22T06:03:50.320Z,66.32
2018-11-22T06:06:19.484Z,66.60
2018-11-22T06:08:48.100Z,66.84
2018-11-22T06:11:16.658Z,66.68
2018-11-22T06:13:45.429Z,66.79
2018-11-22T06:16:14.224Z,66.81
2018-11-22T06:18:43.086Z,66.89
2018-11-22T06:21:12.102Z,66.99
2018-11-22T06:23:40.890Z,67.14
2018-11-22T06:26:09.450Z,67.37
2018-11-22T06:28:37.630Z,67.21
2018-11-22T06:31:06.416Z,67.26
2018-11-22T06:33:34.133Z,67.34
2018-11-22T06:36:03.409Z,66.97
2018-11-22T06:38:31.914Z,66.94
2018-11-22T06:41:00.408Z,66.81
2018-11-22T06:43:28.965Z,66.72
2018-11-22T06:45:58.354Z,66.60
2018-11-22T06:48:46.961Z,66.43
2018-11-22T06:51:15.126Z,66.09
2018-11-22T06:53:43.651Z,66.25
2018-11-22T06:56:12.751Z,66.39
2018-11-22T06:58:41.553Z,66.37
2018-11-22T07:01:10.092Z,66.31
2018-11-22T07:03:38.267Z,66.13
2018-11-22T07:06:06.814Z,65.93
2018-11-22T07:08:35.372Z,66.22
2018-11-22T07:11:04.201Z,66.49
2018-11-22T07:13:32.395Z,66.44
2018-11-22T07:16:00.884Z,66.41
2018-11-22T07:18:48.420Z,66.43
2018-11-22T07:21:16.617Z,66.34
2018-11-22T07:23:45.106Z,66.25
2018-11-22T07:26:13.662Z,66.04
2018-11-22T07:28:42.164Z,65.91
2018-11-22T07:31:10.343Z,65.72
2018-11-22T07:33:39.745Z,65.72
2018-11-22T07:36:08.611Z,65.79
2018-11-22T07:38:37.624Z,66.04
2018-11-22T07:43:46.103Z,66.15
2018-11-22T07:46:14.288Z,66.11
2018-11-22T07:48:43.407Z,66.25
2018-11-22T07:51:12.250Z,65.75
2018-11-22T07:53:40.413Z,65.50
2018-11-22T07:56:08.609Z,65.48
2018-11-22T07:58:37.106Z,65.83
2018-11-22T08:01:06.388Z,65.84
2018-11-22T08:03:35.139Z,65.19
2018-11-22T08:06:03.651Z,65.43
2018-11-22T08:08:31.826Z,65.54
2018-11-22T08:11:00.615Z,65.62
2018-11-22T08:13:29.971Z,65.21
2018-11-22T08:15:58.128Z,64.92
2018-11-22T08:18:26.851Z,64.90
2018-11-22T08:20:56.097Z,64.55
2018-11-22T08:23:25.481Z,64.73
2018-11-22T08:25:53.649Z,64.36
2018-11-22T08:28:22.147Z,64.38
2018-11-22T08:30:51.534Z,64.63
2018-11-22T08:33:19.699Z,64.52
2018-11-22T08:35:48.209Z,64.08
2018-11-22T08:38:16.716Z,64.04
2018-11-22T08:40:45.771Z,64.26
2018-11-22T08:43:14.234Z,63.99
2018-11-22T08:45:43.601Z,63.78
2018-11-22T08:48:12.040Z,63.92
2018-11-22T08:51:00.523Z,63.65
2018-11-22T08:53:29.531Z,63.78
2018-11-22T08:55:58.065Z,63.38
2018-11-22T08:58:27.260Z,63.71
2018-11-22T09:00:56.822Z,63.48
2018-11-22T09:03:25.667Z,62.65
2018-11-22T09:06:12.949Z,62.84
2018-11-22T09:08:41.448Z,62.78
2018-11-22T09:11:10.224Z,62.37
2018-11-22T09:13:38.964Z,62.49
2018-11-22T09:16:07.760Z,62.44
2018-11-22T09:18:36.543Z,62.66
2018-11-22T09:21:05.665Z,62.58
2018-11-22T09:23:38.480Z,62.83
2018-11-22T09:26:02.358Z,62.13
2018-11-22T09:28:30.877Z,62.13
2018-11-22T09:30:59.904Z,62.13
2018-11-22T09:33:28.706Z,61.63
2018-11-22T09:35:57.483Z,61.19
2018-11-22T09:38:26.014Z,61.31
2018-11-22T09:40:54.444Z,61.39
2018-11-22T09:43:22.964Z,61.35
2018-11-22T09:45:51.715Z,60.32
2018-11-22T09:48:20.277Z,60.92
2018-11-22T09:50:48.854Z,60.69
2018-11-22T09:53:18.389Z,60.02
2018-11-22T09:55:47.948Z,60.45
2018-11-22T09:58:16.459Z,60.59
2018-11-22T10:00:44.946Z,59.70
2018-11-22T10:03:32.567Z,59.65
2018-11-22T10:06:01.572Z,60.03
2018-11-22T10:08:30.514Z,59.52
2018-11-22T10:10:59.600Z,58.69
2018-11-22T10:13:28.161Z,57.55
2018-11-22T10:15:56.954Z,58.49
2018-11-22T10:18:25.767Z,57.39
2018-11-22T10:20:55.279Z,58.21
2018-11-22T10:23:24.134Z,57.55
2018-11-22T10:25:52.314Z,57.18
2018-11-22T10:28:40.230Z,58.25
2018-11-22T10:31:28.147Z,57.10
2018-11-22T10:33:56.966Z,58.04
2018-11-22T10:36:25.827Z,57.57
2018-11-22T10:38:54.241Z,57.59
2018-11-22T10:41:22.420Z,58.57
2018-11-22T10:43:51.217Z,57.66
2018-11-22T10:46:19.686Z,58.14
2018-11-22T10:48:48.158Z,56.79
2018-11-22T10:51:16.710Z,57.67
2018-11-22T10:53:45.453Z,57.52
2018-11-22T10:56:13.948Z,57.56
2018-11-22T10:58:42.389Z,56.52
2018-11-22T11:01:29.637Z,56.73
2018-11-22T11:04:17.187Z,55.79
2018-11-22T11:07:05.052Z,56.12
2018-11-22T11:09:33.497Z,55.70
2018-11-22T11:12:01.947Z,55.54
2018-11-22T11:14:30.429Z,56.29
2018-11-22T11:16:59.270Z,56.76
2018-11-22T11:19:28.061Z,57.21
2018-11-22T11:21:57.031Z,57.56
2018-11-22T11:24:26.234Z,57.51
2018-11-22T11:26:54.551Z,57.16
2018-11-22T11:29:23.362Z,57.51
2018-11-22T11:32:10.976Z,57.71
2018-11-22T11:34:39.495Z,57.53
2018-11-22T11:37:08.010Z,57.73
2018-11-22T11:39:36.800Z,56.96
2018-11-22T11:42:05.137Z,57.02
2018-11-22T11:44:33.309Z,57.71
2018-11-22T11:47:01.778Z,56.88
2018-11-22T11:49:30.264Z,57.85
2018-11-22T11:51:58.430Z,57.96
2018-11-22T11:54:27.291Z,57.78
2018-11-22T11:56:55.442Z,57.79
2018-11-22T11:59:23.770Z,58.01
2018-11-22T12:01:52.281Z,57.49
2018-11-22T12:04:21.347Z,57.57
2018-11-22T12:06:49.824Z,57.98
2018-11-22T12:09:18.281Z,57.78
2018-11-22T12:11:47.502Z,57.56
2018-11-22T12:14:35.016Z,57.30
2018-11-22T12:17:03.176Z,57.14
2018-11-22T12:19:31.945Z,57.26
2018-11-22T12:22:00.419Z,57.25
2018-11-22T12:24:29.115Z,57.16
2018-11-22T12:26:57.920Z,57.14
2018-11-22T12:29:26.407Z,57.97
2018-11-22T12:31:55.223Z,57.09
2018-11-22T12:34:43.133Z,57.02
2018-11-22T12:37:30.723Z,57.58
2018-11-22T12:39:59.759Z,56.98
2018-11-22T12:42:28.688Z,57.14
2018-11-22T12:45:01.952Z,56.96
2018-11-22T12:47:31.272Z,57.03
2018-11-22T12:50:00.464Z,57.23
2018-11-22T12:52:28.983Z,57.11
2018-11-22T12:54:57.728Z,57.06
2018-11-22T12:57:27.413Z,56.69
2018-11-22T12:59:56.824Z,56.78
2018-11-22T13:02:25.890Z,55.66
2018-11-22T13:05:13.168Z,56.21
2018-11-22T13:07:41.346Z,56.52
2018-11-22T13:10:12.272Z,56.78
2018-11-22T13:12:41.478Z,55.99
2018-11-22T13:15:12.315Z,55.90
2018-11-22T13:17:41.108Z,56.11
2018-11-22T13:20:12.445Z,56.34
2018-11-22T13:22:39.904Z,56.28
2018-11-22T13:25:15.753Z,57.08
2018-11-22T13:27:44.600Z,55.79
2018-11-22T13:30:33.491Z,56.08
2018-11-22T13:33:01.658Z,56.13
2018-11-22T13:35:49.219Z,56.91
2018-11-22T13:38:36.819Z,56.37
2018-11-22T13:41:24.403Z,56.42
2018-11-22T13:43:52.870Z,56.23
2018-11-22T13:46:21.670Z,56.13
2018-11-22T13:48:50.163Z,56.37
2018-11-22T13:51:18.668Z,56.08
2018-11-22T13:54:06.634Z,55.87
2018-11-22T13:56:35.127Z,55.98
2018-11-22T13:59:03.650Z,55.79
2018-11-22T14:01:32.129Z,55.67
2018-11-22T14:04:00.614Z,56.10
2018-11-22T14:06:29.249Z,55.38
2018-11-22T14:08:58.051Z,55.58
2018-11-22T14:11:26.721Z,54.60
2018-11-22T14:13:54.915Z,55.04
2018-11-22T14:16:23.094Z,55.88
2018-11-22T14:18:51.564Z,55.60
2018-11-22T14:21:19.739Z,55.06
2018-11-22T14:23:48.429Z,55.06
2018-11-22T14:26:16.968Z,54.24
2018-11-22T14:28:45.165Z,54.54
2018-11-22T14:31:13.589Z,54.36
2018-11-22T14:33:42.451Z,54.47
2018-11-22T14:36:10.640Z,54.50
2018-11-22T14:38:39.212Z,54.44
2018-11-22T14:41:08.103Z,54.76
2018-11-22T14:43:36.344Z,54.68
2018-11-22T14:46:04.812Z,55.08
2018-11-22T14:48:52.059Z,54.03
2018-11-22T14:51:42.151Z,54.20
2018-11-22T14:54:10.298Z,54.88
2018-11-22T14:56:58.179Z,55.11
2018-11-22T14:59:26.335Z,55.11
2018-11-22T15:01:54.554Z,55.09
2018-11-22T15:04:42.122Z,54.91
2018-11-22T15:07:10.611Z,55.78
2018-11-22T15:09:57.856Z,55.12
2018-11-22T15:12:26.472Z,55.39
2018-11-22T15:14:55.267Z,55.87
2018-11-22T15:17:24.027Z,56.15
2018-11-22T15:19:52.875Z,55.60
2018-11-22T15:22:21.042Z,55.09
2018-11-22T15:24:49.479Z,56.06
2018-11-22T15:27:18.269Z,56.74
2018-11-22T15:29:46.903Z,57.04
2018-11-22T15:32:15.744Z,56.87
2018-11-22T15:34:44.247Z,56.79
2018-11-22T15:37:12.742Z,56.92
2018-11-22T15:39:40.912Z,57.39
2018-11-22T15:42:09.355Z,57.70
2018-11-22T15:44:37.923Z,57.76
2018-11-22T15:47:06.538Z,57.80
2018-11-22T15:49:35.025Z,57.97
2018-11-22T15:52:03.684Z,58.41
2018-11-22T15:54:33.103Z,58.74
2018-11-22T15:57:01.576Z,59.03
2018-11-22T15:59:30.394Z,59.17
2018-11-22T16:01:59.768Z,59.36
2018-11-22T16:04:28.567Z,59.70
2018-11-22T16:06:57.368Z,59.94
2018-11-22T16:09:25.810Z,60.28
2018-11-22T16:11:54.979Z,60.48
2018-11-22T16:14:23.510Z,60.93
2018-11-22T16:16:51.723Z,61.09
2018-11-22T16:19:19.941Z,61.53
2018-11-22T16:21:49.273Z,61.68
2018-11-22T16:24:17.839Z,61.87
2018-11-22T16:26:46.648Z,61.99
2018-11-22T16:29:15.360Z,62.22
2018-11-22T16:31:43.537Z,62.55
2018-11-22T16:34:12.513Z,62.80
2018-11-22T16:36:40.731Z,63.63
2018-11-22T16:39:28.685Z,63.48
2018-11-22T16:41:56.892Z,63.54
2018-11-22T16:44:25.649Z,63.78
2018-11-22T16:46:54.759Z,63.98
2018-11-22T16:49:23.132Z,64.00
2018-11-22T16:51:51.593Z,64.21
2018-11-22T16:54:20.725Z,64.45
2018-11-22T16:56:49.558Z,64.53
2018-11-22T16:59:37.461Z,64.64
2018-11-22T17:02:06.015Z,64.79
2018-11-22T17:04:34.618Z,64.87
2018-11-22T17:07:03.420Z,64.86
2018-11-22T17:09:31.627Z,64.99
2018-11-22T17:12:00.080Z,65.19
2018-11-22T17:14:29.119Z,65.23
2018-11-22T17:16:57.716Z,65.43
2018-11-22T17:19:26.665Z,65.45
2018-11-22T17:21:55.251Z,65.64
2018-11-22T17:24:25.585Z,65.53
2018-11-22T17:26:54.530Z,65.80
2018-11-22T17:29:23.386Z,65.89
2018-11-22T17:31:52.352Z,66.08
2018-11-22T17:34:21.014Z,66.11
2018-11-22T17:36:49.427Z,66.15
2018-11-22T17:39:37.399Z,66.37
2018-11-22T17:42:06.338Z,66.70
2018-11-22T17:44:34.904Z,66.87
2018-11-22T17:47:23.084Z,66.96
2018-11-22T17:49:51.533Z,67.23
2018-11-22T17:52:20.377Z,67.11
2018-11-22T17:54:48.885Z,67.22
2018-11-22T17:57:17.405Z,67.20
2018-11-22T18:00:06.787Z,67.25
2018-11-22T18:02:35.250Z,67.22
2018-11-22T18:05:27.107Z,67.17
2018-11-22T18:08:10.176Z,67.15
2018-11-22T18:10:40.038Z,67.18
2018-11-22T18:13:08.784Z,67.27
2018-11-22T18:15:56.067Z,67.32
2018-11-22T18:18:25.077Z,68.05
2018-11-22T18:20:53.552Z,67.82
2018-11-22T18:23:22.151Z,67.80
2018-11-22T18:26:09.999Z,67.96
2018-11-22T18:28:39.535Z,67.79
2018-11-22T18:31:27.076Z,67.86
2018-11-22T18:33:55.789Z,68.11
2018-11-22T18:36:24.356Z,68.27
2018-11-22T18:38:52.592Z,68.29
2018-11-22T18:41:21.668Z,68.46
2018-11-22T18:44:09.484Z,68.49
2018-11-22T18:46:57.093Z,68.58
2018-11-22T18:49:25.879Z,68.59
2018-11-22T18:51:54.642Z,68.44
2018-11-22T18:54:22.818Z,68.75
2018-11-22T18:56:51.026Z,68.89
2018-11-22T18:59:19.520Z,68.71
2018-11-22T19:01:48.503Z,68.75
2018-11-22T19:04:16.678Z,68.97
2018-11-22T19:06:45.230Z,69.02
2018-11-22T19:09:13.499Z,69.37
2018-11-22T19:11:42.442Z,69.43
2018-11-22T19:14:11.079Z,69.41
2018-11-22T19:16:39.748Z,69.47
2018-11-22T19:19:07.991Z,69.50
2018-11-22T19:21:40.984Z,69.64
2018-11-22T19:24:05.437Z,69.73
2018-11-22T19:26:53.287Z,69.87
2018-11-22T19:29:22.124Z,69.90
2018-11-22T19:31:50.949Z,69.99
2018-11-22T19:34:19.141Z,70.08
2018-11-22T19:36:48.476Z,69.96
2018-11-22T19:39:17.822Z,70.10
2018-11-22T19:42:05.445Z,70.25
2018-11-22T19:44:33.955Z,70.57
2018-11-22T19:47:02.684Z,70.51
2018-11-22T19:49:44.073Z,70.47
2018-11-22T19:52:31.295Z,70.20
2018-11-22T19:54:59.840Z,70.61
2018-11-22T19:57:28.751Z,70.64
2018-11-22T19:59:58.735Z,70.68
2018-11-22T20:02:27.009Z,70.75
2018-11-22T20:04:55.212Z,70.94
2018-11-22T20:07:24.276Z,71.01
2018-11-22T20:09:53.634Z,71.18
2018-11-22T20:12:22.328Z,71.22
2018-11-22T20:14:51.481Z,71.57
2018-11-22T20:17:19.714Z,71.70
2018-11-22T20:19:48.558Z,71.28
2018-11-22T20:22:17.447Z,71.44
2018-11-22T20:24:45.712Z,71.28
2018-11-22T20:27:14.648Z,71.23
2018-11-22T20:29:42.903Z,71.23
2018-11-22T20:32:11.460Z,71.42
2018-11-22T20:34:59.094Z,71.50
2018-11-22T20:37:27.992Z,71.47
2018-11-22T20:39:57.171Z,71.48
2018-11-22T20:42:25.389Z,71.32
2018-11-22T20:44:54.479Z,71.63
2018-11-22T20:47:23.328Z,71.85
2018-11-22T20:52:50.371Z,71.79
2018-11-22T20:55:21.104Z,71.63
2018-11-22T20:57:50.504Z,72.26
2018-11-22T21:00:20.017Z,71.68
2018-11-22T21:02:48.198Z,71.62
2018-11-22T21:05:17.454Z,72.36
2018-11-22T21:07:45.987Z,72.16
2018-11-22T21:10:18.884Z,72.12
2018-11-22T21:12:47.132Z,72.12
2018-11-22T21:15:17.768Z,72.04
2018-11-22T21:17:46.855Z,72.44
2018-11-22T21:20:16.249Z,71.68
2018-11-22T21:22:44.488Z,71.73
2018-11-22T21:25:14.205Z,71.75
2018-11-22T21:27:42.447Z,71.67
2018-11-22T21:30:16.168Z,71.51
2018-11-22T21:32:45.313Z,72.03
2018-11-22T21:35:13.800Z,71.71
2018-11-22T21:37:42.165Z,71.62
2018-11-22T21:40:10.957Z,71.81
2018-11-22T21:42:39.236Z,72.20
2018-11-22T21:45:11.293Z,72.15
2018-11-22T21:47:39.464Z,72.26
2018-11-22T21:50:08.884Z,71.89
2018-11-22T21:52:37.285Z,72.15
2018-11-22T21:55:07.134Z,72.50
2018-11-22T21:57:42.652Z,72.08
2018-11-22T22:00:14.472Z,72.71
2018-11-22T22:02:42.640Z,72.25
2018-11-22T22:05:11.233Z,72.54
2018-11-22T22:07:40.029Z,72.32
2018-11-22T22:10:08.306Z,72.48
2018-11-22T22:12:36.520Z,71.82
2018-11-22T22:15:05.808Z,72.08
2018-11-22T22:17:33.995Z,72.22
2018-11-22T22:20:02.172Z,72.91
2018-11-22T22:22:30.342Z,72.71
2018-11-22T22:24:58.496Z,72.70
2018-11-22T22:27:26.669Z,72.52
2018-11-22T22:29:54.862Z,72.27
2018-11-22T22:32:23.073Z,72.73
2018-11-22T22:34:51.231Z,72.25
2018-11-22T22:37:19.422Z,72.89
2018-11-22T22:39:47.627Z,72.57
2018-11-22T22:42:15.821Z,72.74
2018-11-22T22:44:44.004Z,72.87
2018-11-22T22:47:12.208Z,73.18
2018-11-22T22:49:40.375Z,73.15
2018-11-22T22:52:08.556Z,72.56
2018-11-22T22:54:36.977Z,73.08
2018-11-22T22:57:05.261Z,73.46
2018-11-22T22:59:33.456Z,73.18
2018-11-22T23:02:01.635Z,73.75
2018-11-22T23:04:29.948Z,73.49
2018-11-22T23:06:58.204Z,73.44
2018-11-22T23:09:26.392Z,73.29
2018-11-22T23:11:54.604Z,73.31
2018-11-22T23:14:22.797Z,73.24
2018-11-22T23:16:50.983Z,73.21
2018-11-22T23:19:19.167Z,73.22
2018-11-22T23:21:47.437Z,73.37
2018-11-22T23:24:15.659Z,72.85
2018-11-22T23:26:43.885Z,73.12
2018-11-22T23:29:12.102Z,73.83
2018-11-22T23:31:40.319Z,73.42
2018-11-22T23:34:08.512Z,73.57
2018-11-22T23:36:36.734Z,73.65
2018-11-22T23:39:08.273Z,73.91
2018-11-22T23:41:36.501Z,73.67
2018-11-22T23:44:04.736Z,73.69
2018-11-22T23:46:32.932Z,74.32
2018-11-22T23:49:01.120Z,73.70
2018-11-22T23:51:29.283Z,73.82
2018-11-22T23:53:57.780Z,73.27
2018-11-22T23:56:25.940Z,73.01
2018-11-22T23:58:54.127Z,73.10
